createdAt,value
2023-01-29T00:03:51.229Z,5.57
2023-01-29T00:08:52.662Z,6.20
2023-01-29T00:13:54.360Z,5.93
2023-01-29T00:18:55.794Z,6.10
2023-01-29T00:23:57.252Z,5.70
2023-01-29T00:28:58.672Z,5.37
2023-01-29T00:34:00.105Z,5.00
2023-01-29T00:39:01.553Z,5.10
2023-01-29T00:44:03.002Z,6.03
2023-01-29T00:49:04.431Z,5.87
2023-01-29T00:54:05.841Z,5.73
2023-01-29T00:59:07.287Z,5.17
2023-01-29T01:04:08.701Z,5.30
2023-01-29T01:09:10.115Z,5.80
2023-01-29T01:14:11.595Z,5.47
2023-01-29T01:19:13.094Z,6.07
2023-01-29T01:24:14.608Z,5.20
2023-01-29T01:29:16.144Z,4.73
2023-01-29T01:34:17.608Z,5.77
2023-01-29T01:39:19.112Z,5.97
2023-01-29T01:44:20.508Z,6.20
2023-01-29T01:49:21.919Z,4.90
2023-01-29T01:54:23.326Z,6.17
2023-01-29T01:59:24.751Z,5.50
2023-01-29T02:04:26.223Z,5.40
2023-01-29T02:09:27.629Z,6.63
2023-01-29T02:14:29.048Z,5.57
2023-01-29T02:19:30.454Z,5.47
2023-01-29T02:24:31.919Z,5.47
2023-01-29T02:29:33.323Z,6.10
2023-01-29T02:34:34.908Z,5.80
2023-01-29T02:39:36.309Z,5.50
2023-01-29T02:44:37.718Z,6.13
2023-01-29T02:49:39.136Z,6.37
2023-01-29T02:54:40.548Z,6.23
2023-01-29T02:59:41.958Z,6.10
2023-01-29T03:04:43.381Z,5.50
2023-01-29T03:09:44.788Z,5.97
2023-01-29T03:14:46.197Z,5.63
2023-01-29T03:19:47.617Z,6.00
2023-01-29T03:24:49.024Z,5.50
2023-01-29T03:29:51.050Z,5.93
2023-01-29T03:34:52.468Z,5.50
2023-01-29T03:39:53.896Z,5.30
2023-01-29T03:44:55.327Z,6.03
2023-01-29T03:49:56.726Z,5.90
2023-01-29T03:54:58.145Z,5.77
2023-01-29T03:59:59.564Z,5.10
2023-01-29T04:05:00.968Z,5.80
2023-01-29T04:10:02.388Z,5.23
2023-01-29T04:15:03.780Z,5.70
2023-01-29T04:20:05.185Z,6.33
2023-01-29T04:25:06.582Z,5.40
2023-01-29T04:30:08.000Z,5.40
2023-01-29T04:35:09.408Z,5.60
2023-01-29T04:40:10.811Z,6.03
2023-01-29T04:45:12.222Z,5.20
2023-01-29T04:50:13.875Z,6.03
2023-01-29T04:55:15.439Z,5.97
2023-01-29T05:00:17.205Z,5.30
2023-01-29T05:05:18.752Z,5.50
2023-01-29T05:10:20.341Z,5.20
2023-01-29T05:15:21.817Z,5.90
2023-01-29T05:20:23.225Z,5.83
2023-01-29T05:25:24.633Z,4.90
2023-01-29T05:30:26.148Z,5.10
2023-01-29T05:35:27.545Z,5.10
2023-01-29T05:40:28.949Z,5.47
2023-01-29T05:45:30.350Z,5.10
2023-01-29T05:50:31.751Z,5.33
2023-01-29T05:55:33.148Z,4.83
2023-01-29T06:00:34.566Z,5.67
2023-01-29T06:05:35.975Z,5.30
2023-01-29T06:10:37.389Z,5.03
2023-01-29T06:15:38.796Z,5.50
2023-01-29T06:20:40.225Z,5.70
2023-01-29T06:25:41.649Z,5.00
2023-01-29T06:30:43.104Z,5.53
2023-01-29T06:35:44.508Z,5.10
2023-01-29T06:40:46.007Z,5.40
2023-01-29T06:45:47.477Z,5.20
2023-01-29T06:50:48.926Z,5.23
2023-01-29T06:55:50.333Z,5.20
2023-01-29T07:00:51.757Z,4.83
2023-01-29T07:05:53.201Z,5.70
2023-01-29T07:10:54.653Z,4.80
2023-01-29T07:15:56.095Z,5.03
2023-01-29T07:20:57.563Z,5.20
2023-01-29T07:25:58.990Z,5.43
2023-01-29T07:31:00.440Z,5.40
2023-01-29T07:36:01.877Z,5.30
2023-01-29T07:41:03.437Z,5.73
2023-01-29T07:46:04.951Z,5.67
2023-01-29T07:51:06.438Z,5.23
2023-01-29T07:56:07.862Z,5.40
2023-01-29T08:01:09.275Z,5.27
2023-01-29T08:06:10.742Z,5.20
2023-01-29T08:11:12.208Z,5.30
2023-01-29T08:16:13.657Z,5.10
2023-01-29T08:21:15.101Z,5.60
2023-01-29T08:26:16.510Z,5.23
2023-01-29T08:31:17.936Z,5.40
2023-01-29T08:36:19.435Z,5.57
2023-01-29T08:41:20.931Z,5.80
2023-01-29T08:46:22.395Z,5.80
2023-01-29T08:51:23.832Z,5.20
2023-01-29T08:56:25.243Z,5.50
2023-01-29T09:01:26.705Z,5.67
2023-01-29T09:06:28.209Z,5.33
2023-01-29T09:11:29.638Z,5.47
2023-01-29T09:16:31.083Z,5.87
2023-01-29T09:21:32.507Z,5.50
2023-01-29T09:26:33.918Z,5.40
2023-01-29T09:31:35.450Z,5.10
2023-01-29T09:36:36.914Z,5.90
2023-01-29T09:41:38.316Z,5.03
2023-01-29T09:46:40.361Z,5.10
2023-01-29T09:51:41.815Z,4.43
2023-01-29T09:56:43.229Z,5.67
2023-01-29T10:01:44.788Z,5.17
2023-01-29T10:06:46.292Z,5.30
2023-01-29T10:11:47.710Z,5.20
2023-01-29T10:16:49.330Z,5.70
2023-01-29T10:21:50.792Z,5.33
2023-01-29T10:26:52.301Z,4.90
2023-01-29T10:31:54.722Z,5.57
2023-01-29T10:36:56.192Z,5.20
2023-01-29T10:41:57.594Z,5.30
2023-01-29T10:46:59.041Z,5.83
2023-01-29T10:52:00.472Z,5.53
2023-01-29T10:57:01.877Z,5.90
2023-01-29T11:02:03.340Z,5.00
2023-01-29T11:07:04.829Z,5.40
2023-01-29T11:12:06.232Z,5.40
2023-01-29T11:17:07.696Z,5.20
2023-01-29T11:22:09.147Z,5.30
2023-01-29T11:27:10.537Z,5.17
2023-01-29T11:32:11.974Z,5.40
2023-01-29T11:37:13.477Z,5.13
2023-01-29T11:42:15.152Z,5.30
2023-01-29T11:47:16.585Z,5.30
2023-01-29T11:52:18.013Z,5.50
2023-01-29T11:57:20.141Z,4.97
2023-01-29T12:02:21.615Z,4.97
2023-01-29T12:07:23.027Z,5.60
2023-01-29T12:12:24.456Z,4.73
2023-01-29T12:17:25.918Z,5.23
2023-01-29T12:22:27.327Z,5.00
2023-01-29T12:27:30.585Z,4.60
2023-01-29T12:32:32.000Z,4.70
2023-01-29T12:37:33.435Z,4.90
2023-01-29T12:42:34.864Z,4.80
2023-01-29T12:47:36.364Z,4.30
2023-01-29T12:52:37.772Z,4.90
2023-01-29T12:57:39.207Z,5.10
2023-01-29T13:02:40.607Z,5.20
2023-01-29T13:07:42.095Z,5.20
2023-01-29T13:12:46.399Z,5.00
2023-01-29T13:17:47.810Z,5.17
2023-01-29T13:22:49.255Z,5.87
2023-01-29T13:27:50.656Z,4.37
2023-01-29T13:32:52.049Z,4.60
2023-01-29T13:37:53.447Z,5.03
2023-01-29T13:42:54.864Z,4.80
2023-01-29T13:47:56.280Z,4.43
2023-01-29T13:52:57.737Z,4.30
2023-01-29T13:57:59.155Z,5.27
2023-01-29T14:03:00.563Z,4.50
2023-01-29T14:08:01.967Z,5.57
2023-01-29T14:13:03.375Z,5.47
2023-01-29T14:18:04.790Z,5.63
2023-01-29T14:23:06.247Z,6.30
2023-01-29T14:28:07.676Z,5.47
2023-01-29T14:33:09.077Z,5.27
2023-01-29T14:38:10.505Z,5.00
2023-01-29T14:43:11.905Z,5.60
2023-01-29T14:48:13.309Z,5.27
2023-01-29T14:53:14.702Z,7.20
2023-01-29T14:58:16.099Z,7.90
2023-01-29T15:03:17.511Z,7.00
2023-01-29T15:08:18.922Z,7.70
2023-01-29T15:13:20.319Z,7.57
2023-01-29T15:18:21.719Z,7.17
2023-01-29T15:23:23.209Z,7.80
2023-01-29T15:28:24.650Z,8.17
2023-01-29T15:33:28.850Z,6.50
2023-01-29T15:38:30.239Z,6.87
2023-01-29T15:43:31.669Z,6.00
2023-01-29T15:48:33.119Z,6.23
2023-01-29T15:53:34.529Z,5.50
2023-01-29T15:58:35.936Z,5.30
2023-01-29T16:03:37.339Z,5.90
2023-01-29T16:08:38.785Z,5.87
2023-01-29T16:13:40.186Z,5.50
2023-01-29T16:18:54.181Z,5.40
2023-01-29T16:24:00.559Z,5.60
2023-01-29T16:29:01.967Z,5.27
2023-01-29T16:34:03.404Z,4.43
2023-01-29T16:39:04.817Z,4.80
2023-01-29T16:44:06.236Z,4.50
2023-01-29T16:49:07.647Z,4.83
2023-01-29T16:54:09.073Z,5.13
2023-01-29T16:59:10.492Z,4.77
2023-01-29T17:04:11.955Z,4.90
2023-01-29T17:09:13.366Z,4.30
2023-01-29T17:14:14.756Z,4.97
2023-01-29T17:19:16.185Z,4.53
2023-01-29T17:24:17.804Z,5.47
2023-01-29T17:29:19.258Z,4.33
2023-01-29T17:34:20.673Z,5.03
2023-01-29T17:39:22.075Z,4.20
2023-01-29T17:44:23.493Z,5.03
2023-01-29T17:49:24.909Z,5.00
2023-01-29T17:54:26.468Z,4.30
2023-01-29T17:59:27.884Z,5.07
2023-01-29T18:04:29.449Z,4.50
2023-01-29T18:09:30.861Z,4.50
2023-01-29T18:14:32.327Z,4.53
2023-01-29T18:19:33.756Z,4.10
2023-01-29T18:24:35.229Z,4.13
2023-01-29T18:29:36.949Z,4.23
2023-01-29T18:34:38.434Z,4.60
2023-01-29T18:39:39.852Z,4.40
2023-01-29T18:44:41.261Z,4.00
2023-01-29T18:49:42.693Z,4.13
2023-01-29T18:54:44.111Z,4.83
2023-01-29T18:59:45.518Z,4.20
2023-01-29T19:04:46.935Z,4.27
2023-01-29T19:09:48.345Z,4.27
2023-01-29T19:14:49.754Z,4.10
2023-01-29T19:19:51.203Z,4.17
2023-01-29T19:24:52.648Z,4.23
2023-01-29T19:29:54.051Z,4.40
2023-01-29T19:34:55.458Z,4.37
2023-01-29T19:39:56.889Z,4.50
2023-01-29T19:44:58.354Z,3.93
2023-01-29T19:49:59.772Z,4.50
2023-01-29T19:55:01.165Z,4.70
2023-01-29T20:00:02.611Z,4.30
2023-01-29T20:05:04.033Z,4.60
2023-01-29T20:10:05.443Z,4.33
2023-01-29T20:15:06.848Z,4.50
2023-01-29T20:20:08.253Z,3.83
2023-01-29T20:25:09.651Z,4.27
2023-01-29T20:30:11.073Z,4.30
2023-01-29T20:35:12.471Z,4.20
2023-01-29T20:40:13.940Z,4.00
2023-01-29T20:45:18.377Z,4.13
2023-01-29T20:50:19.917Z,3.80
2023-01-29T20:55:21.475Z,4.20
2023-01-29T21:00:23.003Z,4.40
2023-01-29T21:05:24.406Z,4.07
2023-01-29T21:10:25.821Z,4.47
2023-01-29T21:15:27.229Z,4.23
2023-01-29T21:20:31.664Z,4.00
2023-01-29T21:25:33.072Z,4.33
2023-01-29T21:30:34.524Z,4.10
2023-01-29T21:35:35.945Z,3.93
2023-01-29T21:40:37.399Z,4.47
2023-01-29T21:45:39.016Z,3.90
2023-01-29T21:50:40.486Z,3.83
2023-01-29T21:55:41.913Z,4.70
2023-01-29T22:00:43.317Z,4.20
2023-01-29T22:05:44.729Z,4.10
2023-01-29T22:10:46.124Z,3.80
2023-01-29T22:15:47.780Z,3.50
2023-01-29T22:20:49.191Z,4.03
2023-01-29T22:25:50.608Z,4.57
2023-01-29T22:30:53.138Z,3.70
2023-01-29T22:35:54.558Z,4.33
2023-01-29T22:40:55.961Z,3.60
2023-01-29T22:45:57.396Z,3.80
2023-01-29T22:50:58.809Z,4.33
2023-01-29T22:56:00.219Z,4.10
2023-01-29T23:01:01.666Z,4.03
2023-01-29T23:06:03.106Z,4.30
2023-01-29T23:11:04.535Z,4.10
2023-01-29T23:16:05.963Z,3.37
2023-01-29T23:21:07.366Z,3.70
2023-01-29T23:26:08.831Z,3.77
2023-01-29T23:31:10.305Z,3.50
2023-01-29T23:36:11.732Z,3.47
2023-01-29T23:41:13.155Z,3.50
2023-01-29T23:46:14.606Z,3.50
2023-01-29T23:51:16.058Z,3.73
2023-01-29T23:56:17.502Z,3.40
